sensor_id;sensor_type;location;lat;lon;timestamp;P1;durP1;ratioP1;P2;durP2;ratioP2
67597;SDS011;62026;39.230;9.122;2022-12-07T00:01:17;22.95;;;9.05;;
67597;SDS011;62026;39.230;9.122;2022-12-07T00:03:51;18.35;;;9.60;;
67597;SDS011;62026;39.230;9.122;2022-12-07T00:06:19;18.05;;;9.13;;
67597;SDS011;62026;39.230;9.122;2022-12-07T00:08:46;17.67;;;9.20;;
67597;SDS011;62026;39.230;9.122;2022-12-07T00:11:20;18.00;;;8.95;;
67597;SDS011;62026;39.230;9.122;2022-12-07T00:13:51;21.92;;;9.07;;
67597;SDS011;62026;39.230;9.122;2022-12-07T00:18:58;16.27;;;8.70;;
67597;SDS011;62026;39.230;9.122;2022-12-07T00:21:25;19.08;;;8.98;;
67597;SDS011;62026;39.230;9.122;2022-12-07T00:24:00;20.25;;;9.35;;
67597;SDS011;62026;39.230;9.122;2022-12-07T00:26:28;18.98;;;9.35;;
67597;SDS011;62026;39.230;9.122;2022-12-07T00:29:00;22.30;;;9.93;;
67597;SDS011;62026;39.230;9.122;2022-12-07T00:31:33;22.30;;;8.88;;
67597;SDS011;62026;39.230;9.122;2022-12-07T00:34:07;22.35;;;7.93;;
67597;SDS011;62026;39.230;9.122;2022-12-07T00:36:38;18.85;;;7.13;;
67597;SDS011;62026;39.230;9.122;2022-12-07T00:39:04;19.55;;;7.65;;
67597;SDS011;62026;39.230;9.122;2022-12-07T00:41:30;19.73;;;7.28;;
67597;SDS011;62026;39.230;9.122;2022-12-07T00:43:56;16.58;;;6.95;;
67597;SDS011;62026;39.230;9.122;2022-12-07T00:46:22;15.30;;;6.55;;
67597;SDS011;62026;39.230;9.122;2022-12-07T00:48:50;11.75;;;6.70;;
67597;SDS011;62026;39.230;9.122;2022-12-07T00:51:19;12.60;;;7.07;;
67597;SDS011;62026;39.230;9.122;2022-12-07T00:53:48;17.70;;;6.50;;
67597;SDS011;62026;39.230;9.122;2022-12-07T00:56:15;16.83;;;7.10;;
67597;SDS011;62026;39.230;9.122;2022-12-07T00:58:54;17.08;;;5.85;;
67597;SDS011;62026;39.230;9.122;2022-12-07T01:01:26;18.08;;;5.97;;
67597;SDS011;62026;39.230;9.122;2022-12-07T01:03:59;14.30;;;5.63;;
67597;SDS011;62026;39.230;9.122;2022-12-07T01:06:26;15.45;;;5.43;;
67597;SDS011;62026;39.230;9.122;2022-12-07T01:08:53;19.67;;;5.47;;
67597;SDS011;62026;39.230;9.122;2022-12-07T01:11:21;12.75;;;4.80;;
67597;SDS011;62026;39.230;9.122;2022-12-07T01:13:51;18.75;;;5.40;;
67597;SDS011;62026;39.230;9.122;2022-12-07T01:16:19;13.15;;;5.43;;
67597;SDS011;62026;39.230;9.122;2022-12-07T01:18:47;10.57;;;4.90;;
67597;SDS011;62026;39.230;9.122;2022-12-07T01:21:17;14.20;;;5.43;;
67597;SDS011;62026;39.230;9.122;2022-12-07T01:23:49;9.57;;;4.18;;
67597;SDS011;62026;39.230;9.122;2022-12-07T01:26:17;9.98;;;4.55;;
67597;SDS011;62026;39.230;9.122;2022-12-07T01:28:47;10.80;;;4.25;;
67597;SDS011;62026;39.230;9.122;2022-12-07T01:31:14;11.38;;;3.85;;
67597;SDS011;62026;39.230;9.122;2022-12-07T01:38:57;10.93;;;3.50;;
67597;SDS011;62026;39.230;9.122;2022-12-07T01:41:27;10.13;;;3.60;;
67597;SDS011;62026;39.230;9.122;2022-12-07T01:46:59;9.65;;;4.20;;
67597;SDS011;62026;39.230;9.122;2022-12-07T01:49:32;11.15;;;4.07;;
67597;SDS011;62026;39.230;9.122;2022-12-07T01:52:14;14.73;;;4.40;;
67597;SDS011;62026;39.230;9.122;2022-12-07T01:54:57;7.85;;;3.35;;
67597;SDS011;62026;39.230;9.122;2022-12-07T01:57:28;6.57;;;3.30;;
67597;SDS011;62026;39.230;9.122;2022-12-07T01:59:59;10.02;;;3.60;;
67597;SDS011;62026;39.230;9.122;2022-12-07T02:02:39;7.10;;;3.08;;
67597;SDS011;62026;39.230;9.122;2022-12-07T02:05:41;10.52;;;3.72;;
67597;SDS011;62026;39.230;9.122;2022-12-07T02:08:09;6.97;;;2.88;;
67597;SDS011;62026;39.230;9.122;2022-12-07T02:10:38;6.13;;;2.67;;
67597;SDS011;62026;39.230;9.122;2022-12-07T02:13:05;4.45;;;2.15;;
67597;SDS011;62026;39.230;9.122;2022-12-07T02:27:00;6.85;;;2.40;;
67597;SDS011;62026;39.230;9.122;2022-12-07T02:32:27;9.95;;;2.25;;
67597;SDS011;62026;39.230;9.122;2022-12-07T02:38:00;9.20;;;2.50;;
67597;SDS011;62026;39.230;9.122;2022-12-07T02:40:46;4.93;;;1.90;;
67597;SDS011;62026;39.230;9.122;2022-12-07T02:43:30;8.18;;;2.05;;
67597;SDS011;62026;39.230;9.122;2022-12-07T02:46:06;7.05;;;2.40;;
67597;SDS011;62026;39.230;9.122;2022-12-07T02:48:39;7.95;;;2.03;;
67597;SDS011;62026;39.230;9.122;2022-12-07T02:51:08;7.43;;;2.00;;
67597;SDS011;62026;39.230;9.122;2022-12-07T03:13:25;6.32;;;1.70;;
67597;SDS011;62026;39.230;9.122;2022-12-07T03:16:02;4.10;;;1.80;;
67597;SDS011;62026;39.230;9.122;2022-12-07T03:18:49;8.00;;;1.90;;
67597;SDS011;62026;39.230;9.122;2022-12-07T03:21:26;4.35;;;1.73;;
67597;SDS011;62026;39.230;9.122;2022-12-07T03:24:22;4.25;;;1.95;;
67597;SDS011;62026;39.230;9.122;2022-12-07T03:26:58;4.63;;;2.15;;
67597;SDS011;62026;39.230;9.122;2022-12-07T03:29:41;8.80;;;2.60;;
67597;SDS011;62026;39.230;9.122;2022-12-07T03:32:19;6.63;;;1.88;;
67597;SDS011;62026;39.230;9.122;2022-12-07T03:38:23;5.53;;;1.98;;
67597;SDS011;62026;39.230;9.122;2022-12-07T03:41:00;3.28;;;1.63;;
67597;SDS011;62026;39.230;9.122;2022-12-07T03:43:33;6.47;;;2.13;;
67597;SDS011;62026;39.230;9.122;2022-12-07T03:46:06;9.05;;;2.10;;
67597;SDS011;62026;39.230;9.122;2022-12-07T03:57:06;7.13;;;2.05;;
67597;SDS011;62026;39.230;9.122;2022-12-07T03:59:35;3.80;;;1.52;;
67597;SDS011;62026;39.230;9.122;2022-12-07T04:02:04;6.47;;;2.00;;
67597;SDS011;62026;39.230;9.122;2022-12-07T04:04:32;7.78;;;2.22;;
67597;SDS011;62026;39.230;9.122;2022-12-07T04:06:59;6.40;;;1.88;;
67597;SDS011;62026;39.230;9.122;2022-12-07T04:09:25;7.28;;;2.00;;
67597;SDS011;62026;39.230;9.122;2022-12-07T04:11:51;10.18;;;3.00;;
67597;SDS011;62026;39.230;9.122;2022-12-07T04:14:17;6.55;;;2.40;;
67597;SDS011;62026;39.230;9.122;2022-12-07T04:16:53;14.00;;;2.88;;
67597;SDS011;62026;39.230;9.122;2022-12-07T04:19:23;7.60;;;2.83;;
67597;SDS011;62026;39.230;9.122;2022-12-07T04:21:55;8.85;;;3.17;;
67597;SDS011;62026;39.230;9.122;2022-12-07T04:24:23;7.25;;;3.10;;
67597;SDS011;62026;39.230;9.122;2022-12-07T04:26:50;5.55;;;3.08;;
67597;SDS011;62026;39.230;9.122;2022-12-07T04:29:16;5.57;;;2.67;;
67597;SDS011;62026;39.230;9.122;2022-12-07T04:31:44;7.85;;;3.00;;
67597;SDS011;62026;39.230;9.122;2022-12-07T04:34:10;7.85;;;3.00;;
67597;SDS011;62026;39.230;9.122;2022-12-07T04:36:38;7.15;;;2.90;;
67597;SDS011;62026;39.230;9.122;2022-12-07T04:39:05;8.38;;;2.67;;
67597;SDS011;62026;39.230;9.122;2022-12-07T04:41:33;8.25;;;3.05;;
67597;SDS011;62026;39.230;9.122;2022-12-07T04:44:00;6.75;;;3.03;;
67597;SDS011;62026;39.230;9.122;2022-12-07T04:46:29;7.80;;;3.20;;
67597;SDS011;62026;39.230;9.122;2022-12-07T04:48:57;9.27;;;3.20;;
67597;SDS011;62026;39.230;9.122;2022-12-07T04:51:27;8.00;;;3.33;;
67597;SDS011;62026;39.230;9.122;2022-12-07T04:53:54;10.45;;;3.35;;
67597;SDS011;62026;39.230;9.122;2022-12-07T04:56:21;6.57;;;2.78;;
67597;SDS011;62026;39.230;9.122;2022-12-07T04:58:48;7.88;;;2.60;;
67597;SDS011;62026;39.230;9.122;2022-12-07T05:01:16;9.32;;;2.65;;
67597;SDS011;62026;39.230;9.122;2022-12-07T05:03:43;15.30;;;2.55;;
67597;SDS011;62026;39.230;9.122;2022-12-07T05:06:10;10.32;;;3.00;;
67597;SDS011;62026;39.230;9.122;2022-12-07T05:08:37;8.23;;;2.70;;
67597;SDS011;62026;39.230;9.122;2022-12-07T05:11:04;8.88;;;2.40;;
67597;SDS011;62026;39.230;9.122;2022-12-07T05:13:31;8.15;;;1.88;;
67597;SDS011;62026;39.230;9.122;2022-12-07T05:15:58;5.32;;;2.40;;
67597;SDS011;62026;39.230;9.122;2022-12-07T05:18:24;4.72;;;2.40;;
67597;SDS011;62026;39.230;9.122;2022-12-07T05:20:51;4.82;;;2.00;;
67597;SDS011;62026;39.230;9.122;2022-12-07T05:23:18;8.68;;;2.55;;
67597;SDS011;62026;39.230;9.122;2022-12-07T05:25:44;6.50;;;2.17;;
67597;SDS011;62026;39.230;9.122;2022-12-07T05:28:11;6.40;;;2.63;;
67597;SDS011;62026;39.230;9.122;2022-12-07T05:30:37;5.15;;;2.88;;
67597;SDS011;62026;39.230;9.122;2022-12-07T05:33:03;6.38;;;2.65;;
67597;SDS011;62026;39.230;9.122;2022-12-07T05:35:30;4.47;;;2.35;;
67597;SDS011;62026;39.230;9.122;2022-12-07T05:37:56;6.65;;;2.50;;
67597;SDS011;62026;39.230;9.122;2022-12-07T05:40:23;7.97;;;2.45;;
67597;SDS011;62026;39.230;9.122;2022-12-07T05:42:49;7.50;;;2.45;;
67597;SDS011;62026;39.230;9.122;2022-12-07T05:45:15;5.13;;;2.47;;
67597;SDS011;62026;39.230;9.122;2022-12-07T05:47:41;6.65;;;2.63;;
67597;SDS011;62026;39.230;9.122;2022-12-07T05:50:07;7.80;;;2.75;;
67597;SDS011;62026;39.230;9.122;2022-12-07T05:52:33;7.57;;;2.58;;
67597;SDS011;62026;39.230;9.122;2022-12-07T05:54:59;8.18;;;3.17;;
67597;SDS011;62026;39.230;9.122;2022-12-07T05:57:25;8.27;;;3.05;;
67597;SDS011;62026;39.230;9.122;2022-12-07T05:59:51;7.20;;;2.88;;
67597;SDS011;62026;39.230;9.122;2022-12-07T06:02:17;8.25;;;2.65;;
67597;SDS011;62026;39.230;9.122;2022-12-07T06:04:44;11.27;;;2.65;;
67597;SDS011;62026;39.230;9.122;2022-12-07T06:07:13;7.88;;;2.80;;
67597;SDS011;62026;39.230;9.122;2022-12-07T06:09:41;8.30;;;2.75;;
67597;SDS011;62026;39.230;9.122;2022-12-07T06:12:09;7.28;;;2.55;;
67597;SDS011;62026;39.230;9.122;2022-12-07T06:14:55;6.70;;;2.30;;
67597;SDS011;62026;39.230;9.122;2022-12-07T06:17:22;6.00;;;2.22;;
67597;SDS011;62026;39.230;9.122;2022-12-07T06:19:48;5.57;;;2.53;;
67597;SDS011;62026;39.230;9.122;2022-12-07T06:22:15;6.82;;;3.30;;
67597;SDS011;62026;39.230;9.122;2022-12-07T06:24:41;5.65;;;2.80;;
67597;SDS011;62026;39.230;9.122;2022-12-07T06:27:07;7.65;;;2.50;;
67597;SDS011;62026;39.230;9.122;2022-12-07T06:29:35;6.72;;;2.28;;
67597;SDS011;62026;39.230;9.122;2022-12-07T06:32:01;7.35;;;2.33;;
67597;SDS011;62026;39.230;9.122;2022-12-07T06:34:28;5.00;;;2.20;;
67597;SDS011;62026;39.230;9.122;2022-12-07T06:36:54;6.40;;;2.30;;
67597;SDS011;62026;39.230;9.122;2022-12-07T06:39:21;4.65;;;2.17;;
67597;SDS011;62026;39.230;9.122;2022-12-07T06:41:50;10.10;;;2.63;;
67597;SDS011;62026;39.230;9.122;2022-12-07T06:44:17;9.18;;;2.38;;
67597;SDS011;62026;39.230;9.122;2022-12-07T06:46:44;5.28;;;2.10;;
67597;SDS011;62026;39.230;9.122;2022-12-07T06:49:10;4.57;;;2.28;;
67597;SDS011;62026;39.230;9.122;2022-12-07T06:51:36;9.77;;;2.42;;
67597;SDS011;62026;39.230;9.122;2022-12-07T06:54:09;6.28;;;2.10;;
67597;SDS011;62026;39.230;9.122;2022-12-07T06:56:38;7.88;;;3.08;;
67597;SDS011;62026;39.230;9.122;2022-12-07T06:59:04;17.15;;;3.47;;
67597;SDS011;62026;39.230;9.122;2022-12-07T07:01:32;8.25;;;2.30;;
67597;SDS011;62026;39.230;9.122;2022-12-07T07:04:00;9.35;;;2.38;;
67597;SDS011;62026;39.230;9.122;2022-12-07T07:06:27;8.07;;;2.45;;
67597;SDS011;62026;39.230;9.122;2022-12-07T07:08:53;12.25;;;2.50;;
67597;SDS011;62026;39.230;9.122;2022-12-07T07:11:19;14.65;;;2.75;;
67597;SDS011;62026;39.230;9.122;2022-12-07T07:13:45;8.90;;;2.97;;
67597;SDS011;62026;39.230;9.122;2022-12-07T07:16:11;7.97;;;3.08;;
67597;SDS011;62026;39.230;9.122;2022-12-07T07:18:38;7.80;;;2.70;;
67597;SDS011;62026;39.230;9.122;2022-12-07T07:21:04;5.05;;;2.47;;
67597;SDS011;62026;39.230;9.122;2022-12-07T07:23:30;10.75;;;2.72;;
67597;SDS011;62026;39.230;9.122;2022-12-07T07:25:56;11.23;;;3.35;;
67597;SDS011;62026;39.230;9.122;2022-12-07T07:28:22;11.52;;;3.13;;
67597;SDS011;62026;39.230;9.122;2022-12-07T07:30:48;7.05;;;2.97;;
67597;SDS011;62026;39.230;9.122;2022-12-07T07:33:14;7.88;;;3.28;;
67597;SDS011;62026;39.230;9.122;2022-12-07T07:35:40;7.38;;;2.92;;
67597;SDS011;62026;39.230;9.122;2022-12-07T07:38:07;11.20;;;3.92;;
67597;SDS011;62026;39.230;9.122;2022-12-07T07:40:34;19.15;;;4.22;;
67597;SDS011;62026;39.230;9.122;2022-12-07T07:43:00;8.65;;;4.18;;
67597;SDS011;62026;39.230;9.122;2022-12-07T07:45:26;10.07;;;4.35;;
67597;SDS011;62026;39.230;9.122;2022-12-07T07:47:53;12.40;;;4.45;;
67597;SDS011;62026;39.230;9.122;2022-12-07T07:50:20;14.15;;;4.47;;
67597;SDS011;62026;39.230;9.122;2022-12-07T07:52:47;10.80;;;4.72;;
67597;SDS011;62026;39.230;9.122;2022-12-07T07:55:13;10.23;;;4.50;;
67597;SDS011;62026;39.230;9.122;2022-12-07T07:57:39;15.52;;;4.40;;
67597;SDS011;62026;39.230;9.122;2022-12-07T08:00:07;12.38;;;4.20;;
67597;SDS011;62026;39.230;9.122;2022-12-07T08:02:39;15.20;;;4.63;;
67597;SDS011;62026;39.230;9.122;2022-12-07T08:05:08;11.05;;;4.65;;
67597;SDS011;62026;39.230;9.122;2022-12-07T08:07:35;10.05;;;4.78;;
67597;SDS011;62026;39.230;9.122;2022-12-07T08:10:01;11.88;;;4.88;;
67597;SDS011;62026;39.230;9.122;2022-12-07T08:12:28;14.85;;;4.30;;
67597;SDS011;62026;39.230;9.122;2022-12-07T08:14:54;12.40;;;5.53;;
67597;SDS011;62026;39.230;9.122;2022-12-07T08:17:20;9.98;;;4.30;;
67597;SDS011;62026;39.230;9.122;2022-12-07T08:19:46;6.72;;;4.00;;
67597;SDS011;62026;39.230;9.122;2022-12-07T08:22:12;11.55;;;3.92;;
67597;SDS011;62026;39.230;9.122;2022-12-07T08:24:38;11.30;;;4.13;;
67597;SDS011;62026;39.230;9.122;2022-12-07T08:27:04;10.48;;;4.05;;
67597;SDS011;62026;39.230;9.122;2022-12-07T08:29:30;12.57;;;4.03;;
67597;SDS011;62026;39.230;9.122;2022-12-07T08:31:56;14.30;;;4.15;;
67597;SDS011;62026;39.230;9.122;2022-12-07T08:34:22;9.15;;;3.97;;
67597;SDS011;62026;39.230;9.122;2022-12-07T08:36:48;7.80;;;3.28;;
67597;SDS011;62026;39.230;9.122;2022-12-07T08:39:14;10.75;;;3.38;;
67597;SDS011;62026;39.230;9.122;2022-12-07T08:41:40;10.77;;;3.83;;
67597;SDS011;62026;39.230;9.122;2022-12-07T08:44:06;11.13;;;3.72;;
67597;SDS011;62026;39.230;9.122;2022-12-07T08:49:09;12.70;;;4.18;;
67597;SDS011;62026;39.230;9.122;2022-12-07T08:51:43;8.18;;;3.10;;
67597;SDS011;62026;39.230;9.122;2022-12-07T08:54:11;10.18;;;3.65;;
67597;SDS011;62026;39.230;9.122;2022-12-07T08:56:41;10.07;;;3.60;;
67597;SDS011;62026;39.230;9.122;2022-12-07T08:59:09;11.25;;;3.53;;
67597;SDS011;62026;39.230;9.122;2022-12-07T09:01:39;12.07;;;3.80;;
67597;SDS011;62026;39.230;9.122;2022-12-07T09:04:05;7.38;;;3.50;;
67597;SDS011;62026;39.230;9.122;2022-12-07T09:06:31;8.52;;;3.63;;
67597;SDS011;62026;39.230;9.122;2022-12-07T09:08:58;9.68;;;3.42;;
67597;SDS011;62026;39.230;9.122;2022-12-07T09:11:26;10.00;;;3.85;;
67597;SDS011;62026;39.230;9.122;2022-12-07T09:13:53;9.35;;;4.35;;
67597;SDS011;62026;39.230;9.122;2022-12-07T09:16:19;18.80;;;5.45;;
67597;SDS011;62026;39.230;9.122;2022-12-07T09:18:45;11.68;;;4.88;;
67597;SDS011;62026;39.230;9.122;2022-12-07T09:21:11;12.05;;;4.10;;
67597;SDS011;62026;39.230;9.122;2022-12-07T09:23:37;10.63;;;4.57;;
67597;SDS011;62026;39.230;9.122;2022-12-07T09:26:03;16.50;;;5.78;;
67597;SDS011;62026;39.230;9.122;2022-12-07T09:28:30;18.58;;;6.10;;
67597;SDS011;62026;39.230;9.122;2022-12-07T09:30:56;20.13;;;7.25;;
67597;SDS011;62026;39.230;9.122;2022-12-07T09:33:22;20.30;;;7.22;;
67597;SDS011;62026;39.230;9.122;2022-12-07T09:35:49;16.08;;;6.40;;
67597;SDS011;62026;39.230;9.122;2022-12-07T09:38:17;23.13;;;7.28;;
67597;SDS011;62026;39.230;9.122;2022-12-07T09:40:45;20.42;;;7.68;;
67597;SDS011;62026;39.230;9.122;2022-12-07T09:43:13;21.55;;;6.30;;
67597;SDS011;62026;39.230;9.122;2022-12-07T09:45:48;16.08;;;5.82;;
67597;SDS011;62026;39.230;9.122;2022-12-07T09:48:20;15.25;;;5.72;;
67597;SDS011;62026;39.230;9.122;2022-12-07T09:51:02;14.73;;;5.55;;
67597;SDS011;62026;39.230;9.122;2022-12-07T09:53:46;12.23;;;5.55;;
67597;SDS011;62026;39.230;9.122;2022-12-07T09:56:13;12.77;;;5.25;;
67597;SDS011;62026;39.230;9.122;2022-12-07T09:58:42;10.13;;;4.82;;
67597;SDS011;62026;39.230;9.122;2022-12-07T10:01:12;8.27;;;4.35;;
67597;SDS011;62026;39.230;9.122;2022-12-07T10:03:45;12.27;;;3.25;;
67597;SDS011;62026;39.230;9.122;2022-12-07T10:06:20;9.90;;;3.55;;
67597;SDS011;62026;39.230;9.122;2022-12-07T10:08:47;12.75;;;3.83;;
67597;SDS011;62026;39.230;9.122;2022-12-07T10:11:13;10.30;;;3.45;;
67597;SDS011;62026;39.230;9.122;2022-12-07T10:13:48;10.52;;;3.70;;
67597;SDS011;62026;39.230;9.122;2022-12-07T10:18:53;11.77;;;4.40;;
67597;SDS011;62026;39.230;9.122;2022-12-07T10:21:22;13.68;;;3.72;;
67597;SDS011;62026;39.230;9.122;2022-12-07T10:24:00;12.38;;;3.70;;
67597;SDS011;62026;39.230;9.122;2022-12-07T10:29:13;11.35;;;3.17;;
67597;SDS011;62026;39.230;9.122;2022-12-07T10:31:43;11.73;;;3.28;;
67597;SDS011;62026;39.230;9.122;2022-12-07T10:34:21;9.32;;;3.22;;
67597;SDS011;62026;39.230;9.122;2022-12-07T10:39:49;10.23;;;2.60;;
67597;SDS011;62026;39.230;9.122;2022-12-07T10:42:21;7.18;;;2.47;;
67597;SDS011;62026;39.230;9.122;2022-12-07T10:47:50;12.48;;;2.03;;
67597;SDS011;62026;39.230;9.122;2022-12-07T10:56:09;9.03;;;1.97;;
67597;SDS011;62026;39.230;9.122;2022-12-07T10:59:19;12.55;;;2.38;;
67597;SDS011;62026;39.230;9.122;2022-12-07T11:05:17;8.73;;;2.58;;
67597;SDS011;62026;39.230;9.122;2022-12-07T11:11:06;8.48;;;2.30;;
67597;SDS011;62026;39.230;9.122;2022-12-07T11:25:35;13.60;;;2.30;;
67597;SDS011;62026;39.230;9.122;2022-12-07T11:31:17;12.20;;;2.60;;
67597;SDS011;62026;39.230;9.122;2022-12-07T11:34:05;9.43;;;2.45;;
67597;SDS011;62026;39.230;9.122;2022-12-07T11:37:06;14.95;;;3.28;;
67597;SDS011;62026;39.230;9.122;2022-12-07T11:40:24;11.07;;;2.75;;
67597;SDS011;62026;39.230;9.122;2022-12-07T11:42:56;11.02;;;2.65;;
67597;SDS011;62026;39.230;9.122;2022-12-07T11:45:27;10.00;;;2.13;;
67597;SDS011;62026;39.230;9.122;2022-12-07T11:50:54;13.07;;;2.38;;
67597;SDS011;62026;39.230;9.122;2022-12-07T11:53:39;12.48;;;2.22;;
67597;SDS011;62026;39.230;9.122;2022-12-07T11:56:21;8.23;;;1.77;;
67597;SDS011;62026;39.230;9.122;2022-12-07T11:58:57;8.27;;;1.83;;
67597;SDS011;62026;39.230;9.122;2022-12-07T12:06:40;8.07;;;1.70;;
67597;SDS011;62026;39.230;9.122;2022-12-07T12:09:17;3.55;;;1.75;;
67597;SDS011;62026;39.230;9.122;2022-12-07T12:20:00;6.72;;;2.20;;
67597;SDS011;62026;39.230;9.122;2022-12-07T12:22:45;9.70;;;2.08;;
67597;SDS011;62026;39.230;9.122;2022-12-07T12:25:21;9.35;;;2.50;;
67597;SDS011;62026;39.230;9.122;2022-12-07T12:28:01;11.82;;;2.20;;
67597;SDS011;62026;39.230;9.122;2022-12-07T12:30:38;11.75;;;2.10;;
67597;SDS011;62026;39.230;9.122;2022-12-07T12:33:12;7.28;;;1.90;;
67597;SDS011;62026;39.230;9.122;2022-12-07T12:39:10;7.90;;;1.70;;
67597;SDS011;62026;39.230;9.122;2022-12-07T12:46:46;10.20;;;2.10;;
67597;SDS011;62026;39.230;9.122;2022-12-07T12:51:53;7.75;;;2.15;;
67597;SDS011;62026;39.230;9.122;2022-12-07T13:26:19;18.02;;;7.32;;
67597;SDS011;62026;39.230;9.122;2022-12-07T13:31:55;17.98;;;5.80;;
67597;SDS011;62026;39.230;9.122;2022-12-07T13:34:28;10.15;;;3.60;;
67597;SDS011;62026;39.230;9.122;2022-12-07T13:37:05;9.93;;;2.88;;
67597;SDS011;62026;39.230;9.122;2022-12-07T13:39:46;10.70;;;2.88;;
67597;SDS011;62026;39.230;9.122;2022-12-07T13:42:33;9.82;;;2.25;;
67597;SDS011;62026;39.230;9.122;2022-12-07T13:45:13;10.38;;;2.45;;
67597;SDS011;62026;39.230;9.122;2022-12-07T13:47:53;11.70;;;2.42;;
67597;SDS011;62026;39.230;9.122;2022-12-07T13:50:27;15.25;;;3.60;;
67597;SDS011;62026;39.230;9.122;2022-12-07T13:52:59;12.07;;;3.53;;
67597;SDS011;62026;39.230;9.122;2022-12-07T13:55:27;21.73;;;5.65;;
67597;SDS011;62026;39.230;9.122;2022-12-07T13:57:54;22.25;;;6.95;;
67597;SDS011;62026;39.230;9.122;2022-12-07T14:00:25;19.60;;;6.43;;
67597;SDS011;62026;39.230;9.122;2022-12-07T14:05:26;23.55;;;6.93;;
67597;SDS011;62026;39.230;9.122;2022-12-07T14:07:56;25.02;;;10.02;;
67597;SDS011;62026;39.230;9.122;2022-12-07T14:10:31;23.77;;;10.23;;
67597;SDS011;62026;39.230;9.122;2022-12-07T14:16:02;20.23;;;5.57;;
67597;SDS011;62026;39.230;9.122;2022-12-07T14:18:51;16.60;;;5.95;;
67597;SDS011;62026;39.230;9.122;2022-12-07T14:21:21;26.15;;;7.07;;
67597;SDS011;62026;39.230;9.122;2022-12-07T14:24:02;19.52;;;7.03;;
67597;SDS011;62026;39.230;9.122;2022-12-07T14:26:45;19.00;;;6.10;;
67597;SDS011;62026;39.230;9.122;2022-12-07T14:32:04;7.50;;;3.92;;
67597;SDS011;62026;39.230;9.122;2022-12-07T14:34:54;9.40;;;3.20;;
67597;SDS011;62026;39.230;9.122;2022-12-07T14:37:26;9.82;;;3.70;;
67597;SDS011;62026;39.230;9.122;2022-12-07T14:39:54;18.67;;;3.67;;
67597;SDS011;62026;39.230;9.122;2022-12-07T14:42:20;16.95;;;4.53;;
67597;SDS011;62026;39.230;9.122;2022-12-07T14:44:52;10.67;;;3.33;;
67597;SDS011;62026;39.230;9.122;2022-12-07T14:47:18;19.33;;;3.53;;
67597;SDS011;62026;39.230;9.122;2022-12-07T14:49:44;7.85;;;3.30;;
67597;SDS011;62026;39.230;9.122;2022-12-07T14:52:15;13.30;;;3.17;;
67597;SDS011;62026;39.230;9.122;2022-12-07T14:54:55;13.15;;;3.38;;
67597;SDS011;62026;39.230;9.122;2022-12-07T14:57:22;10.85;;;3.45;;
67597;SDS011;62026;39.230;9.122;2022-12-07T14:59:48;13.85;;;5.13;;
67597;SDS011;62026;39.230;9.122;2022-12-07T15:02:15;12.65;;;5.15;;
67597;SDS011;62026;39.230;9.122;2022-12-07T15:04:41;11.90;;;4.15;;
67597;SDS011;62026;39.230;9.122;2022-12-07T15:07:13;19.75;;;8.10;;
67597;SDS011;62026;39.230;9.122;2022-12-07T15:09:45;22.27;;;8.38;;
67597;SDS011;62026;39.230;9.122;2022-12-07T15:12:12;14.50;;;6.32;;
67597;SDS011;62026;39.230;9.122;2022-12-07T15:14:38;18.73;;;5.97;;
67597;SDS011;62026;39.230;9.122;2022-12-07T15:17:04;10.13;;;5.00;;
67597;SDS011;62026;39.230;9.122;2022-12-07T15:19:31;12.45;;;5.43;;
67597;SDS011;62026;39.230;9.122;2022-12-07T15:21:57;11.23;;;4.97;;
67597;SDS011;62026;39.230;9.122;2022-12-07T15:24:25;9.02;;;3.40;;
67597;SDS011;62026;39.230;9.122;2022-12-07T15:26:51;11.73;;;3.03;;
67597;SDS011;62026;39.230;9.122;2022-12-07T15:29:17;8.55;;;2.28;;
67597;SDS011;62026;39.230;9.122;2022-12-07T15:31:44;9.00;;;2.60;;
67597;SDS011;62026;39.230;9.122;2022-12-07T15:34:10;12.68;;;2.65;;
67597;SDS011;62026;39.230;9.122;2022-12-07T15:36:36;14.20;;;3.85;;
67597;SDS011;62026;39.230;9.122;2022-12-07T15:39:02;8.65;;;2.70;;
67597;SDS011;62026;39.230;9.122;2022-12-07T15:41:28;7.97;;;2.42;;
67597;SDS011;62026;39.230;9.122;2022-12-07T15:43:54;5.13;;;2.50;;
67597;SDS011;62026;39.230;9.122;2022-12-07T15:46:39;9.60;;;2.22;;
67597;SDS011;62026;39.230;9.122;2022-12-07T15:49:11;8.02;;;2.20;;
67597;SDS011;62026;39.230;9.122;2022-12-07T15:51:43;6.30;;;2.28;;
67597;SDS011;62026;39.230;9.122;2022-12-07T15:54:16;9.43;;;2.80;;
67597;SDS011;62026;39.230;9.122;2022-12-07T15:56:52;7.32;;;2.70;;
67597;SDS011;62026;39.230;9.122;2022-12-07T15:59:19;8.75;;;2.47;;
67597;SDS011;62026;39.230;9.122;2022-12-07T16:01:45;5.82;;;2.78;;
67597;SDS011;62026;39.230;9.122;2022-12-07T16:04:11;7.57;;;2.50;;
67597;SDS011;62026;39.230;9.122;2022-12-07T16:06:38;11.07;;;3.00;;
67597;SDS011;62026;39.230;9.122;2022-12-07T16:09:04;13.50;;;3.33;;
67597;SDS011;62026;39.230;9.122;2022-12-07T16:11:31;14.60;;;4.65;;
67597;SDS011;62026;39.230;9.122;2022-12-07T16:13:58;23.00;;;7.78;;
67597;SDS011;62026;39.230;9.122;2022-12-07T16:16:24;36.30;;;12.98;;
67597;SDS011;62026;39.230;9.122;2022-12-07T16:18:53;49.00;;;16.23;;
67597;SDS011;62026;39.230;9.122;2022-12-07T16:21:19;41.92;;;15.63;;
67597;SDS011;62026;39.230;9.122;2022-12-07T16:23:46;38.33;;;14.43;;
67597;SDS011;62026;39.230;9.122;2022-12-07T16:26:15;46.72;;;15.52;;
67597;SDS011;62026;39.230;9.122;2022-12-07T16:28:44;44.72;;;14.10;;
67597;SDS011;62026;39.230;9.122;2022-12-07T16:31:11;47.08;;;15.32;;
67597;SDS011;62026;39.230;9.122;2022-12-07T16:33:41;38.28;;;13.60;;
67597;SDS011;62026;39.230;9.122;2022-12-07T16:36:09;41.03;;;11.23;;
67597;SDS011;62026;39.230;9.122;2022-12-07T16:38:38;29.92;;;10.38;;
67597;SDS011;62026;39.230;9.122;2022-12-07T16:41:09;25.65;;;9.20;;
67597;SDS011;62026;39.230;9.122;2022-12-07T16:43:35;21.20;;;8.52;;
67597;SDS011;62026;39.230;9.122;2022-12-07T16:46:02;19.55;;;6.40;;
67597;SDS011;62026;39.230;9.122;2022-12-07T16:48:29;18.45;;;6.32;;
67597;SDS011;62026;39.230;9.122;2022-12-07T16:50:55;17.05;;;5.43;;
67597;SDS011;62026;39.230;9.122;2022-12-07T16:53:22;18.15;;;5.57;;
67597;SDS011;62026;39.230;9.122;2022-12-07T16:55:49;18.80;;;6.13;;
67597;SDS011;62026;39.230;9.122;2022-12-07T16:58:16;14.63;;;5.68;;
67597;SDS011;62026;39.230;9.122;2022-12-07T17:00:43;11.52;;;5.43;;
67597;SDS011;62026;39.230;9.122;2022-12-07T17:03:10;16.02;;;5.40;;
67597;SDS011;62026;39.230;9.122;2022-12-07T17:05:37;12.45;;;5.25;;
67597;SDS011;62026;39.230;9.122;2022-12-07T17:08:08;12.60;;;5.07;;
67597;SDS011;62026;39.230;9.122;2022-12-07T17:10:36;16.50;;;5.55;;
67597;SDS011;62026;39.230;9.122;2022-12-07T17:13:05;15.75;;;4.80;;
67597;SDS011;62026;39.230;9.122;2022-12-07T17:15:54;14.23;;;5.60;;
67597;SDS011;62026;39.230;9.122;2022-12-07T17:18:26;20.55;;;7.20;;
67597;SDS011;62026;39.230;9.122;2022-12-07T17:21:01;18.70;;;7.40;;
67597;SDS011;62026;39.230;9.122;2022-12-07T17:23:30;15.85;;;7.88;;
67597;SDS011;62026;39.230;9.122;2022-12-07T17:26:03;12.10;;;6.63;;
67597;SDS011;62026;39.230;9.122;2022-12-07T17:28:35;15.98;;;7.97;;
67597;SDS011;62026;39.230;9.122;2022-12-07T17:31:04;16.45;;;8.60;;
67597;SDS011;62026;39.230;9.122;2022-12-07T17:33:32;16.90;;;7.93;;
67597;SDS011;62026;39.230;9.122;2022-12-07T17:35:59;18.60;;;9.88;;
67597;SDS011;62026;39.230;9.122;2022-12-07T17:38:27;18.48;;;8.35;;
67597;SDS011;62026;39.230;9.122;2022-12-07T17:40:53;14.57;;;6.55;;
67597;SDS011;62026;39.230;9.122;2022-12-07T17:43:19;13.82;;;5.57;;
67597;SDS011;62026;39.230;9.122;2022-12-07T17:45:45;13.50;;;5.03;;
67597;SDS011;62026;39.230;9.122;2022-12-07T17:48:11;11.38;;;4.70;;
67597;SDS011;62026;39.230;9.122;2022-12-07T17:50:38;12.50;;;4.75;;